createdAt,value
2018-04-02T00:00:36.169Z,100928.80
2018-04-02T00:03:05.528Z,100927.61
2018-04-02T00:05:33.786Z,100931.87
2018-04-02T00:08:02.073Z,100924.70
2018-04-02T00:10:30.369Z,100921.67
2018-04-02T00:12:58.925Z,100921.57
2018-04-02T00:15:27.193Z,100926.34
2018-04-02T00:17:55.474Z,100926.36
2018-04-02T00:20:23.809Z,100926.00
2018-04-02T00:22:52.857Z,100933.83
2018-04-02T00:25:21.128Z,100921.59
2018-04-02T00:27:49.823Z,100924.95
2018-04-02T00:30:18.216Z,100921.93
2018-04-02T00:32:46.920Z,100924.63
2018-04-02T00:35:15.232Z,100926.13
2018-04-02T00:37:44.364Z,100918.77
2018-04-02T00:40:12.639Z,100925.45
2018-04-02T00:42:40.933Z,100922.63
2018-04-02T00:45:09.429Z,100929.42
2018-04-02T00:47:38.119Z,100934.00
2018-04-02T00:50:06.460Z,100933.00
2018-04-02T00:52:34.789Z,100931.87
2018-04-02T00:55:03.680Z,100929.74
2018-04-02T00:57:32.364Z,100930.26
2018-04-02T01:00:00.929Z,100929.13
2018-04-02T01:02:29.276Z,100929.13
2018-04-02T01:04:57.559Z,100932.05
2018-04-02T01:07:26.044Z,100929.64
2018-04-02T01:09:54.318Z,100932.37
2018-04-02T01:12:24.048Z,100933.59
2018-04-02T01:14:52.645Z,100938.61
2018-04-02T01:17:20.916Z,100935.67
2018-04-02T01:19:49.293Z,100936.09
2018-04-02T01:22:17.653Z,100936.00
2018-04-02T01:24:45.939Z,100941.14
2018-04-02T01:27:14.229Z,100940.70
2018-04-02T01:29:43.040Z,100939.19
2018-04-02T01:32:12.143Z,100939.06
2018-04-02T01:34:40.860Z,100938.86
2018-04-02T01:37:09.133Z,100937.96
2018-04-02T01:39:38.225Z,100933.69
2018-04-02T01:42:07.300Z,100934.61
2018-04-02T01:44:35.632Z,100934.17
2018-04-02T01:47:03.907Z,100931.24
2018-04-02T01:49:33.018Z,100937.09
2018-04-02T01:52:01.295Z,100929.23
2018-04-02T01:54:30.496Z,100935.47
2018-04-02T01:56:58.980Z,100938.95
2018-04-02T01:59:27.272Z,100939.27
2018-04-02T02:01:55.550Z,100940.39
2018-04-02T02:04:23.890Z,100936.09
2018-04-02T02:06:52.196Z,100939.98
2018-04-02T02:09:22.234Z,100944.95
2018-04-02T02:11:50.556Z,100944.25
2018-04-02T02:14:18.912Z,100951.48
2018-04-02T02:16:47.985Z,100943.41
2018-04-02T02:19:16.291Z,100952.94
2018-04-02T02:21:45.416Z,100945.42
2018-04-02T02:24:13.708Z,100942.02
2018-04-02T02:26:41.975Z,100934.77
2018-04-02T02:29:10.290Z,100936.00
2018-04-02T02:31:39.210Z,100933.54
2018-04-02T02:34:07.679Z,100928.95
2018-04-02T02:36:36.870Z,100922.55
2018-04-02T02:39:05.217Z,100924.78
2018-04-02T02:41:35.167Z,100916.75
2018-04-02T02:44:03.450Z,100916.59
2018-04-02T02:46:32.827Z,100919.36
2018-04-02T02:49:01.622Z,100920.52
2018-04-02T02:51:30.214Z,100921.92
2018-04-02T02:53:58.979Z,100927.45
2018-04-02T02:56:27.279Z,100924.90
2018-04-02T02:58:55.656Z,100927.94
2018-04-02T03:01:25.705Z,100927.36
2018-04-02T03:03:55.595Z,100931.94
2018-04-02T03:06:23.930Z,100934.23
2018-04-02T03:08:52.216Z,100924.95
2018-04-02T03:11:20.501Z,100923.89
2018-04-02T03:13:48.808Z,100924.47
2018-04-02T03:16:17.164Z,100921.81
2018-04-02T03:18:47.746Z,100920.79
2018-04-02T03:21:17.108Z,100910.67
2018-04-02T03:23:45.492Z,100918.13
2018-04-02T03:26:15.112Z,100913.87
2018-04-02T03:28:43.393Z,100922.78
2018-04-02T03:31:11.970Z,100923.29
2018-04-02T03:33:40.799Z,100926.64
2018-04-02T03:36:09.893Z,100924.95
2018-04-02T03:38:39.468Z,100927.94
2018-04-02T03:41:07.744Z,100922.92
2018-04-02T03:43:37.077Z,100924.20
2018-04-02T03:46:06.140Z,100921.11
2018-04-02T03:48:34.639Z,100917.95
2018-04-02T03:51:02.952Z,100919.72
2018-04-02T03:53:31.528Z,100921.47
2018-04-02T03:55:59.812Z,100917.53
2018-04-02T03:58:28.261Z,100923.34
2018-04-02T04:00:56.565Z,100921.53
2018-04-02T04:03:25.688Z,100922.13
2018-04-02T04:05:57.011Z,100918.93
2018-04-02T04:08:26.069Z,100923.98
2018-04-02T04:10:54.344Z,100921.43
2018-04-02T04:13:22.632Z,100922.12
2018-04-02T04:15:52.206Z,100916.10
2018-04-02T04:18:20.574Z,100921.05
2018-04-02T04:20:48.876Z,100925.16
2018-04-02T04:23:18.197Z,100922.80
2018-04-02T04:25:46.480Z,100925.73
2018-04-02T04:28:15.155Z,100933.25
2018-04-02T04:30:43.613Z,100923.92
2018-04-02T04:33:11.960Z,100928.75
2018-04-02T04:35:41.624Z,100929.55
2018-04-02T04:38:09.937Z,100931.95
2018-04-02T04:40:40.446Z,100929.77
2018-04-02T04:43:09.429Z,100928.75
2018-04-02T04:45:38.213Z,100930.19
2018-04-02T04:48:07.136Z,100935.28
2018-04-02T04:50:36.539Z,100937.04
2018-04-02T04:53:05.480Z,100940.91
2018-04-02T04:55:33.881Z,100937.75
2018-04-02T04:58:02.207Z,100938.89
2018-04-02T05:00:31.261Z,100945.12
2018-04-02T05:03:00.003Z,100937.96
2018-04-02T05:05:28.548Z,100938.69
2018-04-02T05:07:57.221Z,100947.72
2018-04-02T05:10:25.524Z,100945.72
2018-04-02T05:12:54.405Z,100941.77
2018-04-02T05:15:23.085Z,100948.48
2018-04-02T05:17:52.160Z,100938.99
2018-04-02T05:20:22.771Z,100939.38
2018-04-02T05:22:51.259Z,100944.34
2018-04-02T05:25:20.718Z,100942.77
2018-04-02T05:27:49.033Z,100936.27
2018-04-02T05:30:17.645Z,100942.09
2018-04-02T05:32:45.927Z,100938.37
2018-04-02T05:35:15.040Z,100941.11
2018-04-02T05:37:43.308Z,100942.16
2018-04-02T05:40:11.683Z,100935.30
2018-04-02T05:42:40.272Z,100936.47
2018-04-02T05:45:09.182Z,100935.93
2018-04-02T05:47:37.483Z,100936.56
2018-04-02T05:50:06.624Z,100931.59
2018-04-02T05:52:34.924Z,100939.02
2018-04-02T05:55:03.487Z,100943.38
2018-04-02T05:57:31.776Z,100942.45
2018-04-02T06:00:01.268Z,100943.84
2018-04-02T06:02:29.568Z,100938.17
2018-04-02T06:04:58.036Z,100946.06
2018-04-02T06:07:27.280Z,100944.72
2018-04-02T06:09:56.335Z,100947.53
2018-04-02T06:12:24.704Z,100946.91
2018-04-02T06:14:53.020Z,100942.84
2018-04-02T06:17:21.403Z,100944.61
2018-04-02T06:19:50.008Z,100944.27
2018-04-02T06:22:20.348Z,100940.80
2018-04-02T06:24:48.663Z,100938.70
2018-04-02T06:27:16.956Z,100939.00
2018-04-02T06:29:45.312Z,100946.16
2018-04-02T06:32:13.588Z,100934.40
2018-04-02T06:34:41.893Z,100939.47
2018-04-02T06:37:10.181Z,100937.83
2018-04-02T06:39:38.473Z,100933.58
2018-04-02T06:42:07.684Z,100942.03
2018-04-02T06:44:37.243Z,100932.08
2018-04-02T06:47:06.503Z,100941.58
2018-04-02T06:49:35.086Z,100942.80
2018-04-02T06:52:03.448Z,100946.91
2018-04-02T06:54:32.488Z,100947.80
2018-04-02T06:57:00.965Z,100946.16
2018-04-02T06:59:30.195Z,100949.57
2018-04-02T07:01:58.864Z,100947.77
2018-04-02T07:04:28.035Z,100944.41
2018-04-02T07:06:56.454Z,100943.06
2018-04-02T07:09:25.057Z,100938.05
2018-04-02T07:11:53.686Z,100939.05
2018-04-02T07:14:21.960Z,100947.84
2018-04-02T07:16:51.182Z,100945.41
2018-04-02T07:19:20.477Z,100935.20
2018-04-02T07:21:49.065Z,100937.61
2018-04-02T07:24:20.589Z,100942.92
2018-04-02T07:26:51.219Z,100946.45
2018-04-02T07:29:20.951Z,100943.73
2018-04-02T07:31:49.225Z,100939.44
2018-04-02T07:34:17.540Z,100942.63
2018-04-02T07:36:46.187Z,100939.88
2018-04-02T07:39:14.479Z,100946.28
2018-04-02T07:41:42.788Z,100948.87
2018-04-02T07:44:11.151Z,100941.05
2018-04-02T07:46:39.628Z,100948.52
2018-04-02T07:49:07.925Z,100947.42
2018-04-02T07:51:36.548Z,100950.60
2018-04-02T07:54:06.520Z,100947.88
2018-04-02T07:56:34.804Z,100949.20
2018-04-02T07:59:03.384Z,100946.47
2018-04-02T08:01:31.752Z,100948.69
2018-04-02T08:04:00.668Z,100944.97
2018-04-02T08:06:30.928Z,100947.30
2018-04-02T08:09:00.154Z,100948.22
2018-04-02T08:11:28.416Z,100947.73
2018-04-02T08:13:56.708Z,100947.91
2018-04-02T08:16:24.996Z,100946.45
2018-04-02T08:18:53.405Z,100946.91
2018-04-02T08:21:22.326Z,100944.64
2018-04-02T08:23:51.204Z,100944.48
2018-04-02T08:26:19.948Z,100953.12
2018-04-02T08:28:49.146Z,100945.13
2018-04-02T08:31:18.104Z,100944.02
2018-04-02T08:33:47.709Z,100935.55
2018-04-02T08:36:17.405Z,100936.56
2018-04-02T08:38:47.727Z,100932.72
2018-04-02T08:41:16.692Z,100936.92
2018-04-02T08:43:45.016Z,100936.48
2018-04-02T08:46:14.076Z,100938.94
2018-04-02T08:48:43.194Z,100938.68
2018-04-02T08:51:11.782Z,100943.31
2018-04-02T08:53:40.124Z,100941.30
2018-04-02T08:56:09.163Z,100937.31
2018-04-02T08:58:37.453Z,100938.00
2018-04-02T09:01:06.515Z,100927.78
2018-04-02T09:03:35.256Z,100931.58
2018-04-02T09:06:03.869Z,100930.61
2018-04-02T09:08:32.136Z,100928.03
2018-04-02T09:11:00.428Z,100929.70
2018-04-02T09:13:29.028Z,100922.64
2018-04-02T09:15:57.308Z,100927.28
2018-04-02T09:18:25.608Z,100930.64
2018-04-02T09:20:53.874Z,100921.46
2018-04-02T09:23:22.807Z,100922.38
2018-04-02T09:25:51.744Z,100918.22
2018-04-02T09:28:20.019Z,100919.09
2018-04-02T09:30:48.333Z,100918.87
2018-04-02T09:33:17.388Z,100919.69
2018-04-02T09:35:46.888Z,100911.55
2018-04-02T09:38:15.154Z,100906.92
2018-04-02T09:40:44.264Z,100898.96
2018-04-02T09:43:12.732Z,100905.30
2018-04-02T09:45:40.998Z,100903.00
2018-04-02T09:48:09.782Z,100897.66
2018-04-02T09:50:38.955Z,100897.05
2018-04-02T09:53:08.008Z,100897.59
2018-04-02T09:55:36.382Z,100887.95
2018-04-02T09:58:04.773Z,100883.61
2018-04-02T10:00:33.965Z,100890.34
2018-04-02T10:03:02.253Z,100891.37
2018-04-02T10:05:32.479Z,100885.10
2018-04-02T10:08:02.201Z,100879.92
2018-04-02T10:10:31.455Z,100881.08
2018-04-02T10:13:01.043Z,100879.87
2018-04-02T10:15:30.106Z,100870.74
2018-04-02T10:17:59.008Z,100873.38
2018-04-02T10:20:28.264Z,100873.56
2018-04-02T10:22:57.142Z,100875.11
2018-04-02T10:25:25.412Z,100862.25
2018-04-02T10:27:55.393Z,100861.83
2018-04-02T10:30:23.680Z,100860.67
2018-04-02T10:32:51.994Z,100855.11
2018-04-02T10:35:20.285Z,100859.47
2018-04-02T10:37:49.589Z,100858.36
2018-04-02T10:40:20.033Z,100844.86
2018-04-02T10:42:48.308Z,100856.14
2018-04-02T10:45:16.777Z,100848.19
2018-04-02T10:47:45.053Z,100852.97
2018-04-02T10:50:13.332Z,100847.48
2018-04-02T10:52:42.721Z,100844.33
2018-04-02T10:55:11.051Z,100847.13
2018-04-02T10:57:39.327Z,100844.02
2018-04-02T11:00:08.291Z,100838.90
2018-04-02T11:02:37.283Z,100830.13
2018-04-02T11:05:06.086Z,100832.83
2018-04-02T11:07:34.362Z,100827.41
2018-04-02T11:10:02.640Z,100833.76
2018-04-02T11:12:30.959Z,100829.55
2018-04-02T11:14:59.188Z,100825.16
2018-04-02T11:17:27.458Z,100829.05
2018-04-02T11:19:56.676Z,100832.52
2018-04-02T11:22:25.144Z,100826.72
2018-04-02T11:24:53.429Z,100820.22
2018-04-02T11:27:23.102Z,100822.77
2018-04-02T11:29:52.120Z,100822.83
2018-04-02T11:32:20.500Z,100811.78
2018-04-02T11:34:49.033Z,100815.69
2018-04-02T11:37:17.963Z,100812.81
2018-04-02T11:39:46.239Z,100801.25
2018-04-02T11:42:15.568Z,100794.72
2018-04-02T11:44:43.875Z,100796.33
2018-04-02T11:47:12.204Z,100788.23
2018-04-02T11:49:40.475Z,100788.80
2018-04-02T11:52:08.771Z,100784.86
2018-04-02T11:54:37.036Z,100783.64
2018-04-02T11:57:05.323Z,100781.12
2018-04-02T11:59:33.643Z,100774.27
2018-04-02T12:02:01.941Z,100770.89
2018-04-02T12:04:30.968Z,100773.22
2018-04-02T12:06:59.346Z,100764.09
2018-04-02T12:09:27.623Z,100758.67
2018-04-02T12:11:56.018Z,100755.98
2018-04-02T12:14:24.404Z,100765.31
2018-04-02T12:16:52.680Z,100764.16
2018-04-02T12:19:21.068Z,100761.82
2018-04-02T12:21:49.369Z,100764.27
2018-04-02T12:24:17.649Z,100760.55
2018-04-02T12:26:46.740Z,100755.07
2018-04-02T12:29:15.548Z,100756.81
2018-04-02T12:31:44.573Z,100748.19
2018-04-02T12:34:12.871Z,100740.20
2018-04-02T12:36:41.648Z,100741.73
2018-04-02T12:39:09.987Z,100732.95
2018-04-02T12:41:38.957Z,100726.57
2018-04-02T12:44:07.237Z,100713.23
2018-04-02T12:46:35.516Z,100711.01
2018-04-02T12:49:03.861Z,100699.61
2018-04-02T12:51:32.145Z,100694.27
2018-04-02T12:54:00.445Z,100690.20
2018-04-02T12:56:28.989Z,100697.05
2018-04-02T12:58:57.273Z,100695.28
2018-04-02T13:01:25.548Z,100696.90
2018-04-02T13:03:53.848Z,100689.52
2018-04-02T13:06:22.123Z,100698.61
2018-04-02T13:08:50.488Z,100682.74
2018-04-02T13:11:18.777Z,100678.76
2018-04-02T13:13:47.060Z,100672.06
2018-04-02T13:16:15.360Z,100677.23
2018-04-02T13:18:43.677Z,100673.80
2018-04-02T13:21:11.949Z,100661.10
2018-04-02T13:23:40.263Z,100663.49
2018-04-02T13:26:08.695Z,100657.83
2018-04-02T13:28:37.741Z,100655.27
2018-04-02T13:31:06.013Z,100649.46
2018-04-02T13:33:35.025Z,100642.80
2018-04-02T13:36:03.307Z,100650.16
2018-04-02T13:38:31.580Z,100643.48
2018-04-02T13:41:00.102Z,100650.50
2018-04-02T13:43:28.347Z,100642.24
2018-04-02T13:45:57.563Z,100640.03
2018-04-02T13:48:26.155Z,100624.44
2018-04-02T13:50:54.436Z,100616.91
2018-04-02T13:53:24.020Z,100612.79
2018-04-02T13:55:52.804Z,100617.98
2018-04-02T13:58:21.501Z,100623.14
2018-04-02T14:00:50.061Z,100627.02
2018-04-02T14:03:18.376Z,100620.06
2018-04-02T14:05:46.656Z,100626.33
2018-04-02T14:08:15.072Z,100625.15
2018-04-02T14:10:43.468Z,100622.25
2018-04-02T14:13:11.857Z,100612.96
2018-04-02T14:15:40.869Z,100607.05
2018-04-02T14:18:09.273Z,100598.27
2018-04-02T14:20:37.557Z,100603.16
2018-04-02T14:23:06.630Z,100603.57
2018-04-02T14:25:34.932Z,100592.52
2018-04-02T14:28:04.072Z,100585.03
2018-04-02T14:30:33.223Z,100587.08
2018-04-02T14:33:01.532Z,100584.80
2018-04-02T14:35:29.829Z,100582.15
2018-04-02T14:37:58.132Z,100574.80
2018-04-02T14:40:26.659Z,100580.74
2018-04-02T14:42:55.719Z,100579.50
2018-04-02T14:45:24.072Z,100585.56
2018-04-02T14:47:52.369Z,100577.86
2018-04-02T14:50:20.680Z,100580.02
2018-04-02T14:52:51.277Z,100574.33
2018-04-02T14:55:19.770Z,100568.89
2018-04-02T14:57:48.549Z,100571.81
2018-04-02T15:00:17.312Z,100559.75
2018-04-02T15:02:45.600Z,100560.55
2018-04-02T15:05:13.975Z,100558.05
2018-04-02T15:07:43.282Z,100548.90
2018-04-02T15:10:11.569Z,100552.22
2018-04-02T15:12:39.859Z,100546.76
2018-04-02T15:15:08.133Z,100545.52
2018-04-02T15:17:37.248Z,100547.14
2018-04-02T15:20:05.557Z,100539.52
2018-04-02T15:22:34.301Z,100533.73
2018-04-02T15:25:02.669Z,100526.68
2018-04-02T15:27:30.965Z,100528.31
2018-04-02T15:29:59.260Z,100517.92
2018-04-02T15:32:27.561Z,100516.20
2018-04-02T15:34:55.846Z,100507.86
2018-04-02T15:37:24.163Z,100508.62
2018-04-02T15:39:54.165Z,100504.09
2018-04-02T15:42:22.631Z,100504.51
2018-04-02T15:44:50.937Z,100499.88
2018-04-02T15:47:19.226Z,100501.16
2018-04-02T15:49:47.572Z,100488.64
2018-04-02T15:52:15.885Z,100487.34
2018-04-02T15:54:44.391Z,100494.36
2018-04-02T15:57:13.429Z,100487.75
2018-04-02T15:59:42.029Z,100488.59
2018-04-02T16:02:10.325Z,100479.45
2018-04-02T16:04:39.209Z,100476.14
2018-04-02T16:07:07.480Z,100476.12
2018-04-02T16:09:35.756Z,100476.08
2018-04-02T16:12:04.048Z,100472.77
2018-04-02T16:14:32.858Z,100469.04
2018-04-02T16:17:01.258Z,100471.93
2018-04-02T16:19:29.514Z,100469.42
2018-04-02T16:21:57.786Z,100464.86
2018-04-02T16:24:26.846Z,100461.09
2018-04-02T16:26:55.164Z,100460.27
2018-04-02T16:29:23.752Z,100456.12
2018-04-02T16:31:52.607Z,100457.30
2018-04-02T16:34:21.949Z,100457.33
2018-04-02T16:36:50.828Z,100449.41
2018-04-02T16:39:19.189Z,100453.50
2018-04-02T16:41:48.155Z,100450.59
2018-04-02T16:44:17.063Z,100439.80
2018-04-02T16:46:45.580Z,100441.41
2018-04-02T16:49:14.733Z,100434.77
2018-04-02T16:51:43.004Z,100437.63
2018-04-02T16:54:11.296Z,100433.22
2018-04-02T16:56:40.383Z,100428.67
2018-04-02T16:59:08.784Z,100428.82
2018-04-02T17:01:37.067Z,100428.42
2018-04-02T17:04:05.432Z,100429.53
2018-04-02T17:06:33.740Z,100427.91
2018-04-02T17:09:02.998Z,100429.50
2018-04-02T17:11:32.093Z,100417.73
2018-04-02T17:14:00.464Z,100428.62
2018-04-02T17:16:31.975Z,100421.53
2018-04-02T17:19:00.251Z,100416.96
2018-04-02T17:21:28.643Z,100417.35
2018-04-02T17:23:56.917Z,100418.55
2018-04-02T17:26:25.207Z,100412.83
2018-04-02T17:28:54.416Z,100406.08
2018-04-02T17:31:23.472Z,100405.22
2018-04-02T17:33:51.741Z,100405.94
2018-04-02T17:36:20.045Z,100403.41
2018-04-02T17:38:49.275Z,100406.91
2018-04-02T17:41:17.833Z,100399.60
2018-04-02T17:43:47.112Z,100399.45
2018-04-02T17:46:16.277Z,100401.49
2018-04-02T17:48:45.589Z,100403.17
2018-04-02T17:51:13.889Z,100407.27
2018-04-02T17:53:42.165Z,100395.22
2018-04-02T17:56:10.571Z,100394.33
2018-04-02T17:58:38.869Z,100390.92
2018-04-02T18:01:08.969Z,100388.06
2018-04-02T18:03:37.293Z,100389.95
2018-04-02T18:06:05.700Z,100381.28
2018-04-02T18:08:34.849Z,100378.06
2018-04-02T18:11:03.882Z,100372.34
2018-04-02T18:13:32.173Z,100382.16
2018-04-02T18:16:00.933Z,100375.05
2018-04-02T18:18:29.201Z,100373.30
2018-04-02T18:20:57.517Z,100373.42
2018-04-02T18:23:25.853Z,100365.55
2018-04-02T18:25:54.165Z,100368.42
2018-04-02T18:28:22.760Z,100365.47
2018-04-02T18:30:51.131Z,100366.58
2018-04-02T18:33:20.136Z,100356.06
2018-04-02T18:35:48.976Z,100364.77
2018-04-02T18:38:17.297Z,100357.70
2018-04-02T18:40:45.555Z,100355.22
2018-04-02T18:43:13.861Z,100349.89
2018-04-02T18:45:42.163Z,100343.89
2018-04-02T18:48:11.639Z,100344.63
2018-04-02T18:50:40.653Z,100337.80
2018-04-02T18:53:09.797Z,100332.37
2018-04-02T18:55:38.088Z,100328.23
2018-04-02T18:58:06.796Z,100327.14
2018-04-02T19:00:35.028Z,100328.80
2018-04-02T19:03:03.327Z,100319.95
2018-04-02T19:05:31.617Z,100321.07
2018-04-02T19:08:00.764Z,100310.66
2018-04-02T19:10:29.066Z,100316.86
2018-04-02T19:12:58.107Z,100313.08
2018-04-02T19:15:26.390Z,100310.83
2018-04-02T19:17:55.533Z,100305.72
2018-04-02T19:20:24.599Z,100304.66
2018-04-02T19:22:52.877Z,100296.98
2018-04-02T19:25:21.231Z,100296.80
2018-04-02T19:27:49.512Z,100287.87
2018-04-02T19:30:17.825Z,100286.70
2018-04-02T19:32:46.891Z,100279.06
2018-04-02T19:35:15.162Z,100275.72
2018-04-02T19:37:44.185Z,100276.23
2018-04-02T19:40:12.899Z,100270.66
2018-04-02T19:42:41.970Z,100263.27
2018-04-02T19:45:10.550Z,100258.70
2018-04-02T19:47:39.820Z,100260.34
2018-04-02T19:50:09.041Z,100252.00
2018-04-02T19:52:37.304Z,100241.28
2018-04-02T19:55:06.420Z,100242.56
2018-04-02T19:57:35.081Z,100232.73
2018-04-02T20:00:03.769Z,100227.03
2018-04-02T20:02:32.128Z,100220.56
2018-04-02T20:05:01.400Z,100221.05
2018-04-02T20:07:30.440Z,100215.19
2018-04-02T20:09:58.708Z,100213.11
2018-04-02T20:12:27.028Z,100200.52
2018-04-02T20:14:55.536Z,100202.18
2018-04-02T20:17:24.572Z,100190.66
2018-04-02T20:19:52.977Z,100193.55
2018-04-02T20:22:22.256Z,100182.60
2018-04-02T20:24:51.004Z,100182.63
2018-04-02T20:27:20.089Z,100173.91
2018-04-02T20:29:49.157Z,100165.86
2018-04-02T20:32:17.433Z,100160.88
2018-04-02T20:34:45.824Z,100156.38
2018-04-02T20:37:14.120Z,100148.45
2018-04-02T20:39:43.275Z,100146.80
2018-04-02T20:42:11.620Z,100150.11
2018-04-02T20:44:39.944Z,100144.00
2018-04-02T20:47:08.407Z,100137.80
2018-04-02T20:49:36.691Z,100136.05
2018-04-02T20:52:05.783Z,100128.59
2018-04-02T20:54:34.272Z,100127.64
2018-04-02T20:57:03.280Z,100129.78
2018-04-02T20:59:31.848Z,100114.54
2018-04-02T21:02:00.639Z,100119.48
2018-04-02T21:04:29.360Z,100110.88
2018-04-02T21:06:57.679Z,100103.89
2018-04-02T21:09:25.953Z,100104.95
2018-04-02T21:12:00.293Z,100106.40
2018-04-02T21:14:29.848Z,100098.13
2018-04-02T21:17:00.093Z,100100.97
2018-04-02T21:19:29.296Z,100100.22
2018-04-02T21:21:57.579Z,100109.72
2018-04-02T21:24:25.869Z,100107.64
2018-04-02T21:26:55.436Z,100101.58
2018-04-02T21:29:23.771Z,100095.84
2018-04-02T21:31:52.162Z,100092.88
2018-04-02T21:34:20.650Z,100090.25
2018-04-02T21:36:49.791Z,100091.61
2018-04-02T21:39:18.877Z,100083.16
2018-04-02T21:41:47.956Z,100080.61
2018-04-02T21:44:17.174Z,100083.45
2018-04-02T21:46:47.791Z,100072.25
2018-04-02T21:49:16.045Z,100065.14
2018-04-02T21:51:45.390Z,100070.19
2018-04-02T21:54:15.016Z,100060.59
2018-04-02T21:56:44.000Z,100055.30
2018-04-02T21:59:13.050Z,100060.68
2018-04-02T22:01:41.710Z,100050.45
2018-04-02T22:04:10.004Z,100049.14
2018-04-02T22:06:56.457Z,100034.33
2018-04-02T22:09:25.492Z,100025.16
2018-04-02T22:11:53.767Z,100024.40
2018-04-02T22:14:23.801Z,100018.58
2018-04-02T22:19:26.532Z,100007.80
2018-04-02T22:21:55.232Z,99999.06
2018-04-02T22:24:25.077Z,99992.52
2018-04-02T22:26:53.376Z,99976.42
2018-04-02T22:29:21.647Z,99975.16
2018-04-02T22:31:49.941Z,99971.80
2018-04-02T22:34:19.074Z,99975.02
2018-04-02T22:36:48.118Z,99963.79
2018-04-02T22:39:16.392Z,99974.33
2018-04-02T22:41:44.732Z,99964.83
2018-04-02T22:44:13.775Z,99952.75
2018-04-02T22:46:42.034Z,99956.93
2018-04-02T22:49:10.768Z,99955.63
2018-04-02T22:51:39.032Z,99956.50
2018-04-02T22:54:08.250Z,99954.45
2018-04-02T22:56:39.488Z,99955.70
2018-04-02T22:59:07.769Z,99959.00
2018-04-02T23:01:36.120Z,99952.42
2018-04-02T23:04:08.841Z,99954.93
2018-04-02T23:06:37.793Z,99958.75
2018-04-02T23:09:06.069Z,99956.25
2018-04-02T23:11:35.601Z,99930.67
2018-04-02T23:14:03.940Z,99952.50
2018-04-02T23:16:32.237Z,99951.69
2018-04-02T23:19:00.508Z,99942.23
2018-04-02T23:21:31.428Z,99940.53
2018-04-02T23:23:59.697Z,99943.50
2018-04-02T23:26:27.952Z,99947.97
2018-04-02T23:28:57.093Z,99942.19
2018-04-02T23:31:26.244Z,99938.09
2018-04-02T23:33:54.566Z,99941.34
2018-04-02T23:36:22.969Z,99940.92
2018-04-02T23:38:51.438Z,99943.77
2018-04-02T23:41:19.756Z,99935.14
2018-04-02T23:43:48.817Z,99930.52
2018-04-02T23:46:17.195Z,99932.52
2018-04-02T23:48:45.471Z,99937.95
2018-04-02T23:51:13.888Z,99932.15
2018-04-02T23:53:42.347Z,99926.36
2018-04-02T23:56:11.445Z,99932.13
2018-04-02T23:58:39.707Z,99919.35
